Time,TemperatureF,DewpointF,PressureIn,WindDirection,WindDirectionDegrees,WindSpeedMPH,WindSpeedGustMPH,Humidity,HourlyPrecipIn,Conditions,Clouds,dailyrainin,SoftwareType,DateUTC
2013-07-26 00:01:00,59.7,58.6,30.09,East,90,0.0,0.0,96,0.00,,,0.00,pywws,2013-07-26 04:01:00,
2013-07-26 00:02:00,59.7,58.3,30.09,East,90,0.0,0.0,95,0.00,,,0.00,pywws,2013-07-26 04:02:00,
2013-07-26 00:03:00,59.9,58.5,30.09,East,90,0.0,0.0,95,0.00,,,0.00,pywws,2013-07-26 04:03:00,
2013-07-26 00:04:00,59.9,58.5,30.09,East,90,0.0,0.0,95,0.00,,,0.00,pywws,2013-07-26 04:04:00,
2013-07-26 00:10:00,59.9,58.5,30.09,East,90,0.0,0.0,95,0.00,,,0.00,pywws,2013-07-26 04:10:00,
2013-07-26 00:15:00,59.9,58.5,30.09,North,0,0.0,0.0,95,0.00,,,0.00,pywws,2013-07-26 04:15:00,
2013-07-26 00:21:00,60.1,58.6,30.09,North,0,0.0,0.0,95,0.00,,,0.00,pywws,2013-07-26 04:21:00,
2013-07-26 00:22:00,60.1,58.6,30.09,North,0,0.0,0.0,95,0.00,,,0.00,pywws,2013-07-26 04:22:00,
2013-07-26 00:29:00,60.3,58.8,30.09,NE,45,0.0,0.0,95,0.00,,,0.00,pywws,2013-07-26 04:29:00,
2013-07-26 00:34:00,60.3,58.8,30.09,North,0,0.0,0.0,95,0.00,,,0.00,pywws,2013-07-26 04:34:00,
2013-07-26 00:40:00,60.3,58.5,30.09,East,90,0.0,0.0,94,0.00,,,0.00,pywws,2013-07-26 04:40:00,
2013-07-26 00:47:00,60.3,58.5,30.08,East,90,0.0,0.0,94,0.00,,,0.00,pywws,2013-07-26 04:47:00,
2013-07-26 00:53:00,60.3,58.5,30.08,NE,45,0.0,0.0,94,0.00,,,0.00,pywws,2013-07-26 04:53:00,
2013-07-26 00:58:00,60.4,58.7,30.08,North,0,0.0,0.0,94,0.00,,,0.00,pywws,2013-07-26 04:58:00,
2013-07-26 01:04:00,60.4,58.7,30.07,East,90,0.0,0.0,94,0.00,,,0.00,pywws,2013-07-26 05:04:00,
2013-07-26 01:10:00,60.4,58.7,30.07,North,0,0.0,0.0,94,0.00,,,0.00,pywws,2013-07-26 05:10:00,
2013-07-26 01:16:00,60.4,58.4,30.07,North,0,0.0,0.0,93,0.00,,,0.00,pywws,2013-07-26 05:16:00,
2013-07-26 01:25:00,60.4,58.7,30.07,East,90,0.0,0.0,94,0.00,,,0.00,pywws,2013-07-26 05:25:00,
2013-07-26 01:30:00,60.4,58.7,30.07,North,0,0.0,0.0,94,0.00,,,0.00,pywws,2013-07-26 05:30:00,
2013-07-26 01:36:00,60.4,58.7,30.08,North,0,0.0,0.0,94,0.00,,,0.00,pywws,2013-07-26 05:36:00,
2013-07-26 01:42:00,60.4,58.7,30.07,NW,315,0.0,0.0,94,0.00,,,0.00,pywws,2013-07-26 05:42:00,
2013-07-26 01:48:00,60.3,58.5,30.07,North,0,0.0,0.0,94,0.00,,,0.00,pywws,2013-07-26 05:48:00,
2013-07-26 01:54:00,60.3,58.5,30.07,North,0,0.0,0.0,94,0.00,,,0.00,pywws,2013-07-26 05:54:00,
2013-07-26 02:00:00,60.3,58.5,30.07,North,0,0.0,0.0,94,0.00,,,0.00,pywws,2013-07-26 06:00:00,
2013-07-26 02:06:00,60.4,58.7,30.07,North,0,0.0,0.0,94,0.01,,,0.01,pywws,2013-07-26 06:06:00,
2013-07-26 02:13:00,60.3,58.8,30.07,East,90,0.0,0.0,95,0.01,,,0.01,pywws,2013-07-26 06:13:00,
2013-07-26 02:20:00,60.3,58.8,30.07,NE,45,0.0,0.0,95,0.01,,,0.01,pywws,2013-07-26 06:20:00,
2013-07-26 02:26:00,60.3,58.8,30.07,North,0,0.0,0.0,95,0.02,,,0.02,pywws,2013-07-26 06:26:00,
2013-07-26 02:31:00,60.3,58.8,30.07,East,90,0.0,0.0,95,0.02,,,0.02,pywws,2013-07-26 06:31:00,
2013-07-26 02:38:00,60.3,58.8,30.06,North,0,0.0,0.0,95,0.04,,,0.04,pywws,2013-07-26 06:38:00,
2013-07-26 02:44:00,60.3,58.8,30.06,North,0,0.0,0.0,95,0.04,,,0.04,pywws,2013-07-26 06:44:00,
2013-07-26 02:50:00,60.1,58.9,30.06,East,90,0.0,0.0,96,0.04,,,0.04,pywws,2013-07-26 06:50:00,
2013-07-26 02:56:00,60.3,59.1,30.06,North,0,0.0,0.0,96,0.04,,,0.04,pywws,2013-07-26 06:56:00,
2013-07-26 03:02:00,60.3,59.1,30.05,North,0,0.0,0.0,96,0.02,,,0.04,pywws,2013-07-26 07:02:00,
2013-07-26 03:07:00,60.3,59.1,30.05,NW,315,0.0,0.0,96,0.02,,,0.04,pywws,2013-07-26 07:07:00,
2013-07-26 03:13:00,60.1,58.9,30.05,East,90,0.0,0.0,96,0.02,,,0.04,pywws,2013-07-26 07:13:00,
2013-07-26 03:18:00,60.3,59.1,30.05,North,0,0.0,0.0,96,0.02,,,0.04,pywws,2013-07-26 07:18:00,
2013-07-26 03:24:00,60.3,59.1,30.05,North,0,0.0,0.0,96,0.01,,,0.04,pywws,2013-07-26 07:24:00,
2013-07-26 03:31:00,60.4,59.3,30.05,NW,315,0.0,0.0,96,0.01,,,0.04,pywws,2013-07-26 07:31:00,
2013-07-26 03:37:00,60.3,59.1,30.05,North,0,0.0,0.0,96,0.00,,,0.04,pywws,2013-07-26 07:37:00,
2013-07-26 03:42:00,60.3,59.1,30.04,East,90,0.0,0.0,96,0.00,,,0.04,pywws,2013-07-26 07:42:00,
2013-07-26 03:49:00,60.4,59.3,30.04,East,90,0.0,0.0,96,0.00,,,0.04,pywws,2013-07-26 07:49:00,
2013-07-26 03:54:00,60.4,59.3,30.04,North,0,0.0,0.0,96,0.00,,,0.04,pywws,2013-07-26 07:54:00,
2013-07-26 04:00:00,60.4,59.3,30.04,East,90,0.0,0.0,96,0.00,,,0.04,pywws,2013-07-26 08:00:00,
2013-07-26 04:07:00,60.6,59.5,30.04,North,0,0.0,0.0,96,0.00,,,0.04,pywws,2013-07-26 08:07:00,
2013-07-26 04:13:00,60.6,59.5,30.04,North,0,0.0,0.0,96,0.01,,,0.05,pywws,2013-07-26 08:13:00,
2013-07-26 04:18:00,60.6,59.5,30.03,North,0,0.0,0.0,96,0.01,,,0.05,pywws,2013-07-26 08:18:00,
2013-07-26 04:24:00,60.6,59.5,30.04,East,90,0.0,0.0,96,0.01,,,0.05,pywws,2013-07-26 08:24:00,
2013-07-26 04:30:00,60.6,59.5,30.03,West,270,0.0,0.0,96,0.02,,,0.06,pywws,2013-07-26 08:30:00,
2013-07-26 04:36:00,60.6,59.8,30.03,East,90,0.0,0.0,97,0.02,,,0.06,pywws,2013-07-26 08:36:00,
2013-07-26 04:42:00,60.6,59.8,30.03,North,0,0.0,0.0,97,0.02,,,0.06,pywws,2013-07-26 08:42:00,
2013-07-26 04:47:00,60.6,59.8,30.03,North,0,0.0,0.0,97,0.02,,,0.06,pywws,2013-07-26 08:47:00,
2013-07-26 04:53:00,60.6,59.8,30.03,North,0,0.0,0.7,97,0.04,,,0.07,pywws,2013-07-26 08:53:00,
2013-07-26 04:58:00,60.6,59.8,30.03,NW,315,0.0,0.0,97,0.04,,,0.07,pywws,2013-07-26 08:58:00,
2013-07-26 05:04:00,60.6,59.8,30.04,North,0,0.0,0.0,97,0.05,,,0.08,pywws,2013-07-26 09:04:00,
2013-07-26 05:10:00,60.6,59.8,30.03,North,0,0.0,0.0,97,0.05,,,0.08,pywws,2013-07-26 09:10:00,
2013-07-26 05:15:00,60.6,59.8,30.03,North,0,0.0,0.0,97,0.04,,,0.08,pywws,2013-07-26 09:15:00,
2013-07-26 05:21:00,60.6,59.8,30.03,East,90,0.0,0.0,97,0.05,,,0.09,pywws,2013-07-26 09:21:00,
2013-07-26 05:26:00,60.6,59.8,30.03,North,0,0.0,0.0,97,0.06,,,0.11,pywws,2013-07-26 09:26:00,
2013-07-26 05:32:00,60.6,60.1,30.03,North,0,0.0,0.0,98,0.06,,,0.12,pywws,2013-07-26 09:32:00,
2013-07-26 05:38:00,60.6,60.1,30.03,North,0,0.0,0.0,98,0.08,,,0.14,pywws,2013-07-26 09:38:00,
2013-07-26 05:43:00,60.6,60.1,30.03,NE,45,0.0,0.0,98,0.09,,,0.15,pywws,2013-07-26 09:43:00,
2013-07-26 05:49:00,60.4,59.9,30.03,North,0,0.0,0.0,98,0.12,,,0.18,pywws,2013-07-26 09:49:00,
2013-07-26 05:55:00,60.4,59.9,30.03,North,0,0.0,0.0,98,0.12,,,0.19,pywws,2013-07-26 09:55:00,
2013-07-26 06:01:00,60.6,60.1,30.03,North,0,0.0,0.0,98,0.12,,,0.19,pywws,2013-07-26 10:01:00,
2013-07-26 06:06:00,60.8,59.9,30.03,North,0,0.0,0.0,97,0.12,,,0.20,pywws,2013-07-26 10:06:00,
2013-07-26 06:14:00,60.8,59.9,30.03,North,0,0.0,0.0,97,0.13,,,0.21,pywws,2013-07-26 10:14:00,
2013-07-26 06:19:00,60.8,59.9,30.03,East,90,0.0,0.0,97,0.13,,,0.21,pywws,2013-07-26 10:19:00,
2013-07-26 06:25:00,60.8,59.9,30.03,NW,315,0.0,0.0,97,0.12,,,0.22,pywws,2013-07-26 10:25:00,
2013-07-26 06:30:00,60.8,59.9,30.03,North,0,0.0,0.0,97,0.11,,,0.22,pywws,2013-07-26 10:30:00,
2013-07-26 06:36:00,61.0,60.1,30.03,NE,45,0.0,0.7,97,0.09,,,0.22,pywws,2013-07-26 10:36:00,
2013-07-26 06:44:00,61.2,60.3,30.03,North,0,0.0,0.0,97,0.07,,,0.22,pywws,2013-07-26 10:44:00,
2013-07-26 06:50:00,61.0,60.4,30.03,NE,45,0.0,0.0,98,0.06,,,0.24,pywws,2013-07-26 10:50:00,
2013-07-26 06:55:00,61.2,60.3,30.03,North,0,0.0,0.0,97,0.05,,,0.24,pywws,2013-07-26 10:55:00,
2013-07-26 07:01:00,61.2,60.3,30.03,NE,45,0.0,0.0,97,0.05,,,0.24,pywws,2013-07-26 11:01:00,
2013-07-26 07:06:00,61.2,60.3,30.03,NE,45,0.0,0.0,97,0.04,,,0.24,pywws,2013-07-26 11:06:00,
2013-07-26 07:12:00,61.3,60.5,30.03,North,0,0.0,0.0,97,0.02,,,0.24,pywws,2013-07-26 11:12:00,
2013-07-26 07:18:00,61.3,60.5,30.03,North,0,0.0,0.0,97,0.04,,,0.25,pywws,2013-07-26 11:18:00,
2013-07-26 07:24:00,61.3,60.5,30.03,North,0,0.0,0.0,97,0.05,,,0.27,pywws,2013-07-26 11:24:00,
2013-07-26 07:30:00,61.3,60.5,30.02,NW,315,0.0,0.0,97,0.06,,,0.28,pywws,2013-07-26 11:30:00,
2013-07-26 07:35:00,61.5,60.7,30.03,North,0,0.0,0.0,97,0.06,,,0.28,pywws,2013-07-26 11:35:00,
2013-07-26 07:41:00,61.5,60.7,30.02,North,0,0.0,0.0,97,0.06,,,0.28,pywws,2013-07-26 11:41:00,
2013-07-26 07:47:00,61.5,60.7,30.02,North,0,0.0,0.0,97,0.06,,,0.28,pywws,2013-07-26 11:47:00,
2013-07-26 07:53:00,61.7,60.8,30.02,East,90,0.0,0.0,97,0.06,,,0.30,pywws,2013-07-26 11:53:00,
2013-07-26 07:58:00,61.7,60.8,30.02,East,90,0.0,0.0,97,0.06,,,0.30,pywws,2013-07-26 11:58:00,
2013-07-26 08:05:00,61.9,61.0,30.02,North,0,0.0,0.0,97,0.06,,,0.30,pywws,2013-07-26 12:05:00,
2013-07-26 08:11:00,61.7,60.8,30.02,West,270,0.0,0.0,97,0.06,,,0.30,pywws,2013-07-26 12:11:00,
2013-07-26 08:16:00,61.7,60.8,30.02,East,90,0.0,0.7,97,0.06,,,0.30,pywws,2013-07-26 12:16:00,
2013-07-26 08:22:00,61.7,60.8,30.02,NW,315,0.0,0.0,97,0.04,,,0.30,pywws,2013-07-26 12:22:00,
2013-07-26 08:27:00,61.7,60.8,30.02,North,0,0.0,0.0,97,0.02,,,0.30,pywws,2013-07-26 12:27:00,
2013-07-26 08:33:00,61.7,60.5,30.02,North,0,0.0,0.0,96,0.01,,,0.30,pywws,2013-07-26 12:33:00,
2013-07-26 08:40:00,61.9,60.7,30.02,North,0,0.0,0.0,96,0.01,,,0.30,pywws,2013-07-26 12:40:00,
2013-07-26 08:46:00,62.1,60.9,30.02,NE,45,0.0,0.0,96,0.02,,,0.31,pywws,2013-07-26 12:46:00,
2013-07-26 08:51:00,62.1,60.9,30.02,NE,45,0.0,1.6,96,0.01,,,0.31,pywws,2013-07-26 12:51:00,
2013-07-26 08:56:00,62.2,61.1,30.02,North,0,0.0,0.0,96,0.02,,,0.32,pywws,2013-07-26 12:56:00,
2013-07-26 09:02:00,62.2,61.1,30.02,North,0,0.0,0.0,96,0.02,,,0.32,pywws,2013-07-26 13:02:00,
2013-07-26 09:07:00,62.4,61.3,30.02,NE,45,0.0,0.7,96,0.02,,,0.32,pywws,2013-07-26 13:07:00,
2013-07-26 09:13:00,62.4,61.3,30.02,East,90,0.0,0.0,96,0.02,,,0.32,pywws,2013-07-26 13:13:00,
2013-07-26 09:18:00,62.4,61.0,30.02,NE,45,0.0,0.7,95,0.02,,,0.32,pywws,2013-07-26 13:18:00,
2013-07-26 09:24:00,62.4,61.0,30.02,NE,45,0.0,0.0,95,0.04,,,0.33,pywws,2013-07-26 13:24:00,
2013-07-26 09:30:00,62.6,60.8,30.02,North,0,0.0,0.0,94,0.04,,,0.33,pywws,2013-07-26 13:30:00,
2013-07-26 09:36:00,62.4,61.0,30.02,North,0,0.0,0.0,95,0.04,,,0.33,pywws,2013-07-26 13:36:00,
2013-07-26 09:42:00,62.8,61.0,30.01,North,0,0.0,0.0,94,0.02,,,0.33,pywws,2013-07-26 13:42:00,
2013-07-26 09:47:00,63.0,61.2,30.02,North,0,0.0,0.0,94,0.02,,,0.33,pywws,2013-07-26 13:47:00,
2013-07-26 09:53:00,63.3,61.6,30.01,North,0,0.0,0.0,94,0.02,,,0.33,pywws,2013-07-26 13:53:00,
2013-07-26 09:58:00,63.0,61.2,30.02,North,0,0.0,0.0,94,0.01,,,0.33,pywws,2013-07-26 13:58:00,
2013-07-26 10:06:00,63.0,61.2,30.02,North,0,0.0,0.0,94,0.01,,,0.33,pywws,2013-07-26 14:06:00,
2013-07-26 10:12:00,63.1,61.1,30.02,North,0,0.0,0.0,93,0.01,,,0.33,pywws,2013-07-26 14:12:00,
2013-07-26 10:18:00,63.0,60.9,30.02,North,0,0.0,0.0,93,0.01,,,0.33,pywws,2013-07-26 14:18:00,
2013-07-26 10:23:00,63.1,61.1,30.02,SE,135,0.0,0.0,93,0.00,,,0.33,pywws,2013-07-26 14:23:00,
2013-07-26 10:29:00,63.3,61.3,30.02,SE,135,0.0,0.7,93,0.00,,,0.33,pywws,2013-07-26 14:29:00,
2013-07-26 10:34:00,63.5,61.4,30.02,North,0,0.0,0.0,93,0.00,,,0.33,pywws,2013-07-26 14:34:00,
2013-07-26 10:40:00,63.5,61.4,30.02,East,90,0.0,0.7,93,0.01,,,0.34,pywws,2013-07-26 14:40:00,
2013-07-26 10:46:00,63.5,61.4,30.02,North,0,0.0,0.0,93,0.02,,,0.35,pywws,2013-07-26 14:46:00,
2013-07-26 10:51:00,63.7,61.6,30.01,North,0,0.0,0.0,93,0.02,,,0.35,pywws,2013-07-26 14:51:00,
2013-07-26 10:56:00,63.9,61.8,30.02,NW,315,0.0,0.0,93,0.04,,,0.37,pywws,2013-07-26 14:56:00,
2013-07-26 11:02:00,64.0,62.0,30.01,NW,315,0.0,3.1,93,0.05,,,0.38,pywws,2013-07-26 15:02:00,
2013-07-26 11:07:00,64.0,61.7,30.02,North,0,0.0,0.0,92,0.05,,,0.38,pywws,2013-07-26 15:07:00,
2013-07-26 11:13:00,64.2,61.8,30.01,East,90,0.0,0.0,92,0.05,,,0.38,pywws,2013-07-26 15:13:00,
2013-07-26 11:18:00,64.4,62.6,30.01,North,0,0.0,0.0,94,0.05,,,0.38,pywws,2013-07-26 15:18:00,
2013-07-26 11:24:00,64.9,62.9,30.01,NE,45,0.0,0.0,93,0.06,,,0.39,pywws,2013-07-26 15:24:00,
2013-07-26 11:30:00,65.8,64.1,30.01,East,90,0.0,0.0,94,0.06,,,0.39,pywws,2013-07-26 15:30:00,
2013-07-26 11:35:00,65.7,63.9,30.01,East,90,0.0,0.0,94,0.06,,,0.39,pywws,2013-07-26 15:35:00,
2013-07-26 11:41:00,66.0,63.9,30.01,South,180,0.0,0.0,93,0.06,,,0.40,pywws,2013-07-26 15:41:00,
2013-07-26 11:46:00,65.8,63.8,30.01,East,90,0.0,0.0,93,0.05,,,0.40,pywws,2013-07-26 15:46:00,
2013-07-26 11:52:00,65.8,63.8,30.01,West,270,0.0,0.0,93,0.05,,,0.40,pywws,2013-07-26 15:52:00,
2013-07-26 11:58:00,66.0,63.9,30.01,East,90,0.0,0.0,93,0.04,,,0.40,pywws,2013-07-26 15:58:00,
2013-07-26 12:03:00,65.8,63.4,30.00,NE,45,0.0,1.6,92,0.02,,,0.40,pywws,2013-07-26 16:03:00,
2013-07-26 12:09:00,66.7,64.0,30.01,North,0,0.0,0.0,91,0.02,,,0.40,pywws,2013-07-26 16:09:00,
2013-07-26 12:14:00,65.8,63.4,30.01,North,0,0.0,0.0,92,0.04,,,0.41,pywws,2013-07-26 16:14:00,
2013-07-26 12:20:00,66.6,63.8,30.01,North,0,0.0,0.0,91,0.04,,,0.41,pywws,2013-07-26 16:20:00,
2013-07-26 12:26:00,66.0,63.6,30.01,North,0,0.0,0.0,92,0.02,,,0.41,pywws,2013-07-26 16:26:00,
2013-07-26 12:31:00,66.9,64.2,30.01,SE,135,0.0,0.0,91,0.02,,,0.41,pywws,2013-07-26 16:31:00,
2013-07-26 12:36:00,67.3,64.6,30.01,NE,45,0.0,0.7,91,0.02,,,0.41,pywws,2013-07-26 16:36:00,
2013-07-26 12:42:00,67.6,64.6,30.01,SE,135,0.0,0.0,90,0.01,,,0.41,pywws,2013-07-26 16:42:00,
2013-07-26 12:47:00,67.6,64.3,30.00,NE,45,0.0,0.0,89,0.01,,,0.41,pywws,2013-07-26 16:47:00,
2013-07-26 12:53:00,67.5,64.1,30.00,East,90,0.0,1.6,89,0.01,,,0.41,pywws,2013-07-26 16:53:00,
2013-07-26 12:58:00,68.4,64.7,30.00,NE,45,0.0,0.0,88,0.01,,,0.41,pywws,2013-07-26 16:58:00,
2013-07-26 13:04:00,67.5,63.8,30.00,East,90,0.0,0.0,88,0.01,,,0.41,pywws,2013-07-26 17:04:00,
2013-07-26 13:10:00,67.5,63.8,30.00,East,90,0.0,0.0,88,0.00,,,0.41,pywws,2013-07-26 17:10:00,
2013-07-26 13:15:00,67.8,64.1,30.00,East,90,0.0,0.0,88,0.00,,,0.41,pywws,2013-07-26 17:15:00,
2013-07-26 13:21:00,68.2,64.5,29.99,East,90,0.0,0.7,88,0.00,,,0.41,pywws,2013-07-26 17:21:00,
2013-07-26 13:26:00,68.5,64.8,29.99,North,0,0.0,0.0,88,0.00,,,0.41,pywws,2013-07-26 17:26:00,
2013-07-26 13:32:00,69.1,65.0,29.99,SE,135,0.0,3.1,87,0.00,,,0.41,pywws,2013-07-26 17:32:00,
2013-07-26 13:38:00,70.7,66.3,29.99,North,0,0.0,0.0,86,0.00,,,0.41,pywws,2013-07-26 17:38:00,
2013-07-26 13:43:00,69.8,64.7,29.98,South,180,0.0,0.0,84,0.00,,,0.41,pywws,2013-07-26 17:43:00,
2013-07-26 13:49:00,70.5,65.4,29.99,West,270,0.0,0.0,84,0.00,,,0.41,pywws,2013-07-26 17:49:00,
2013-07-26 13:54:00,69.8,64.7,29.99,North,0,0.0,0.0,84,0.00,,,0.41,pywws,2013-07-26 17:54:00,
2013-07-26 14:00:00,69.6,64.9,29.99,North,0,0.0,0.0,85,0.00,,,0.41,pywws,2013-07-26 18:00:00,
2013-07-26 14:06:00,69.8,64.7,29.99,North,0,0.0,0.0,84,0.00,,,0.41,pywws,2013-07-26 18:06:00,
2013-07-26 14:12:00,70.5,65.4,29.99,North,0,0.0,0.0,84,0.00,,,0.41,pywws,2013-07-26 18:12:00,
2013-07-26 14:17:00,70.9,65.5,29.99,North,0,0.0,0.0,83,0.00,,,0.41,pywws,2013-07-26 18:17:00,
2013-07-26 14:22:00,70.5,65.1,29.99,North,0,0.0,0.0,83,0.00,,,0.41,pywws,2013-07-26 18:22:00,
2013-07-26 14:28:00,71.1,66.0,29.99,North,0,0.0,0.0,84,0.00,,,0.41,pywws,2013-07-26 18:28:00,
2013-07-26 14:34:00,70.7,65.3,29.99,East,90,0.0,3.8,83,0.00,,,0.41,pywws,2013-07-26 18:34:00,
2013-07-26 14:39:00,71.6,65.8,29.99,East,90,0.0,0.0,82,0.00,,,0.41,pywws,2013-07-26 18:39:00,
2013-07-26 14:45:00,71.2,65.5,29.99,North,0,0.0,0.0,82,0.00,,,0.41,pywws,2013-07-26 18:45:00,
2013-07-26 14:51:00,72.1,66.0,29.99,West,270,0.0,0.0,81,0.00,,,0.41,pywws,2013-07-26 18:51:00,
2013-07-26 14:57:00,72.0,65.8,29.99,NE,45,0.0,0.0,81,0.00,,,0.41,pywws,2013-07-26 18:57:00,
2013-07-26 15:02:00,72.7,66.5,29.99,North,0,0.0,0.0,81,0.00,,,0.41,pywws,2013-07-26 19:02:00,
2013-07-26 15:08:00,72.3,66.2,29.99,NW,315,0.0,0.0,81,0.00,,,0.41,pywws,2013-07-26 19:08:00,
2013-07-26 15:14:00,72.3,66.2,29.99,North,0,0.0,0.0,81,0.00,,,0.41,pywws,2013-07-26 19:14:00,
2013-07-26 15:20:00,73.4,67.9,29.99,East,90,0.0,0.0,83,0.00,,,0.41,pywws,2013-07-26 19:20:00,
2013-07-26 15:26:00,73.2,67.0,30.00,NW,315,0.0,0.0,81,0.00,,,0.41,pywws,2013-07-26 19:26:00,
2013-07-26 15:31:00,72.3,66.2,30.00,NW,315,0.0,0.0,81,0.00,,,0.41,pywws,2013-07-26 19:31:00,
2013-07-26 15:37:00,71.2,65.8,30.00,North,0,0.0,0.0,83,0.00,,,0.41,pywws,2013-07-26 19:37:00,
2013-07-26 15:42:00,71.4,66.0,29.99,North,0,0.0,0.0,83,0.00,,,0.41,pywws,2013-07-26 19:42:00,
2013-07-26 15:48:00,71.8,66.3,29.99,East,90,0.0,0.0,83,0.00,,,0.41,pywws,2013-07-26 19:48:00,
2013-07-26 15:54:00,72.1,66.7,29.99,West,270,0.0,0.0,83,0.00,,,0.41,pywws,2013-07-26 19:54:00,
2013-07-26 15:59:00,72.9,67.4,29.99,North,0,0.0,0.0,83,0.00,,,0.41,pywws,2013-07-26 19:59:00,
2013-07-26 16:05:00,73.6,67.7,29.99,East,90,0.0,0.0,82,0.00,,,0.41,pywws,2013-07-26 20:05:00,
2013-07-26 16:10:00,73.8,67.9,29.99,NW,315,0.0,0.0,82,0.00,,,0.41,pywws,2013-07-26 20:10:00,
2013-07-26 16:16:00,73.2,67.0,29.99,North,0,0.0,0.0,81,0.00,,,0.41,pywws,2013-07-26 20:16:00,
2013-07-26 16:22:00,73.8,66.8,29.99,NW,315,0.0,0.0,79,0.00,,,0.41,pywws,2013-07-26 20:22:00,
2013-07-26 16:27:00,72.9,65.6,29.99,SE,135,0.0,0.0,78,0.00,,,0.41,pywws,2013-07-26 20:27:00,
2013-07-26 16:33:00,73.6,67.0,29.99,West,270,0.0,0.0,80,0.00,,,0.41,pywws,2013-07-26 20:33:00,
2013-07-26 16:38:00,74.1,66.8,29.99,West,270,0.0,0.0,78,0.00,,,0.41,pywws,2013-07-26 20:38:00,
2013-07-26 16:44:00,74.1,66.1,30.00,West,270,0.0,0.7,76,0.00,,,0.41,pywws,2013-07-26 20:44:00,
2013-07-26 16:56:00,74.1,66.4,30.00,West,270,0.0,0.7,77,0.00,,,0.41,pywws,2013-07-26 20:56:00,
2013-07-26 17:02:00,73.4,65.4,30.00,East,90,0.0,0.0,76,0.00,,,0.41,pywws,2013-07-26 21:02:00,
2013-07-26 17:08:00,72.9,64.1,29.99,NW,315,0.0,0.0,74,0.00,,,0.41,pywws,2013-07-26 21:08:00,
2013-07-26 17:13:00,72.5,62.9,30.00,North,0,0.0,0.0,72,0.00,,,0.41,pywws,2013-07-26 21:13:00,
2013-07-26 17:18:00,73.0,64.2,30.00,North,0,0.0,0.0,74,0.00,,,0.41,pywws,2013-07-26 21:18:00,
2013-07-26 17:24:00,72.3,62.8,30.00,North,0,0.0,0.0,72,0.00,,,0.41,pywws,2013-07-26 21:24:00,
2013-07-26 17:30:00,73.4,64.6,30.00,North,0,0.0,0.0,74,0.00,,,0.41,pywws,2013-07-26 21:30:00,
2013-07-26 17:36:00,72.9,63.3,30.00,NW,315,0.0,0.0,72,0.00,,,0.41,pywws,2013-07-26 21:36:00,
2013-07-26 17:42:00,72.3,62.8,30.01,SE,135,0.0,0.0,72,0.00,,,0.41,pywws,2013-07-26 21:42:00,
2013-07-26 17:47:00,72.5,63.7,30.00,West,270,0.0,0.0,74,0.00,,,0.41,pywws,2013-07-26 21:47:00,
2013-07-26 17:53:00,71.6,62.5,30.00,West,270,0.0,0.0,73,0.00,,,0.41,pywws,2013-07-26 21:53:00,
2013-07-26 17:58:00,71.1,62.3,30.00,SW,225,0.0,0.0,74,0.00,,,0.41,pywws,2013-07-26 21:58:00,
2013-07-26 18:04:00,71.1,62.3,30.00,South,180,0.0,0.0,74,0.00,,,0.41,pywws,2013-07-26 22:04:00,
2013-07-26 18:10:00,70.9,62.2,30.01,West,270,0.0,0.0,74,0.00,,,0.41,pywws,2013-07-26 22:10:00,
2013-07-26 18:15:00,70.5,61.8,30.00,West,270,0.0,0.0,74,0.00,,,0.41,pywws,2013-07-26 22:15:00,
2013-07-26 18:21:00,70.7,62.4,30.01,North,0,0.0,0.0,75,0.00,,,0.41,pywws,2013-07-26 22:21:00,
2013-07-26 18:26:00,70.7,62.0,30.01,North,0,0.0,0.0,74,0.00,,,0.41,pywws,2013-07-26 22:26:00,
2013-07-26 18:32:00,70.5,61.4,30.01,South,180,0.0,0.0,73,0.00,,,0.41,pywws,2013-07-26 22:32:00,
2013-07-26 18:38:00,70.7,62.0,30.01,West,270,0.0,0.0,74,0.00,,,0.41,pywws,2013-07-26 22:38:00,
2013-07-26 18:44:00,70.0,61.7,30.01,West,270,0.0,3.1,75,0.00,,,0.41,pywws,2013-07-26 22:44:00,
2013-07-26 18:50:00,70.2,61.5,30.01,North,0,0.0,0.0,74,0.00,,,0.41,pywws,2013-07-26 22:50:00,
2013-07-26 18:55:00,70.3,62.8,30.01,North,0,0.0,0.0,77,0.00,,,0.41,pywws,2013-07-26 22:55:00,
2013-07-26 19:01:00,70.2,62.6,30.02,East,90,0.0,0.0,77,0.00,,,0.41,pywws,2013-07-26 23:01:00,
2013-07-26 19:06:00,69.6,62.4,30.01,South,180,0.0,0.0,78,0.00,,,0.41,pywws,2013-07-26 23:06:00,
2013-07-26 19:13:00,69.3,62.5,30.01,East,90,0.0,0.0,79,0.00,,,0.41,pywws,2013-07-26 23:13:00,
2013-07-26 19:18:00,69.1,61.9,30.01,East,90,0.0,0.0,78,0.00,,,0.41,pywws,2013-07-26 23:18:00,
2013-07-26 19:24:00,69.1,62.3,30.02,East,90,0.0,0.0,79,0.00,,,0.41,pywws,2013-07-26 23:24:00,
2013-07-26 19:30:00,68.7,62.6,30.02,East,90,0.0,0.0,81,0.00,,,0.41,pywws,2013-07-26 23:30:00,
2013-07-26 19:35:00,68.4,63.0,30.01,West,270,0.0,0.0,83,0.00,,,0.41,pywws,2013-07-26 23:35:00,
2013-07-26 19:42:00,68.2,62.8,30.02,SE,135,0.0,0.0,83,0.00,,,0.41,pywws,2013-07-26 23:42:00,
2013-07-26 19:48:00,68.4,62.6,30.02,SE,135,0.0,0.0,82,0.00,,,0.41,pywws,2013-07-26 23:48:00,
2013-07-26 19:54:00,68.7,62.3,30.02,South,180,0.0,0.0,80,0.00,,,0.41,pywws,2013-07-26 23:54:00,
2013-07-26 19:59:00,68.7,62.3,30.02,SE,135,0.0,0.0,80,0.00,,,0.41,pywws,2013-07-26 23:59:00,
2013-07-26 20:05:00,68.7,61.9,30.02,North,0,0.0,0.0,79,0.00,,,0.41,pywws,2013-07-27 00:05:00,
2013-07-26 20:10:00,68.7,61.9,30.01,North,0,0.0,0.0,79,0.00,,,0.41,pywws,2013-07-27 00:10:00,
2013-07-26 20:16:00,68.5,61.8,30.01,South,180,0.0,0.0,79,0.00,,,0.41,pywws,2013-07-27 00:16:00,
2013-07-26 20:22:00,68.5,61.4,30.02,North,0,0.0,0.0,78,0.00,,,0.41,pywws,2013-07-27 00:22:00,
2013-07-26 20:29:00,68.2,61.1,30.02,West,270,0.0,0.0,78,0.00,,,0.41,pywws,2013-07-27 00:29:00,
2013-07-26 20:34:00,67.8,61.8,30.01,West,270,0.0,0.0,81,0.00,,,0.41,pywws,2013-07-27 00:34:00,
2013-07-26 20:40:00,67.5,62.1,30.02,East,90,0.0,0.0,83,0.00,,,0.41,pywws,2013-07-27 00:40:00,
2013-07-26 20:46:00,66.9,61.9,30.02,East,90,0.0,0.0,84,0.00,,,0.41,pywws,2013-07-27 00:46:00,
2013-07-26 20:52:00,66.9,61.9,30.02,South,180,0.0,0.0,84,0.00,,,0.41,pywws,2013-07-27 00:52:00,
2013-07-26 20:57:00,67.1,62.4,30.02,North,0,0.0,0.0,85,0.00,,,0.41,pywws,2013-07-27 00:57:00,
2013-07-26 21:02:00,66.7,62.1,30.03,NE,45,0.0,0.0,85,0.00,,,0.41,pywws,2013-07-27 01:02:00,
2013-07-26 21:08:00,66.6,62.6,30.03,North,0,0.0,0.0,87,0.00,,,0.41,pywws,2013-07-27 01:08:00,
2013-07-26 21:14:00,66.0,62.7,30.03,North,0,0.0,0.0,89,0.00,,,0.41,pywws,2013-07-27 01:14:00,
2013-07-26 21:20:00,65.7,62.6,30.03,North,0,0.0,0.0,90,0.00,,,0.41,pywws,2013-07-27 01:20:00,
2013-07-26 21:27:00,65.1,62.4,30.03,North,0,0.0,0.0,91,0.00,,,0.41,pywws,2013-07-27 01:27:00,
2013-07-26 21:33:00,64.9,62.6,30.03,North,0,0.0,0.0,92,0.00,,,0.41,pywws,2013-07-27 01:33:00,
2013-07-26 21:38:00,64.8,62.7,30.03,North,0,0.0,0.0,93,0.00,,,0.41,pywws,2013-07-27 01:38:00,
2013-07-26 21:44:00,64.4,62.3,30.04,North,0,0.0,0.0,93,0.00,,,0.41,pywws,2013-07-27 01:44:00,
2013-07-26 21:56:00,64.2,61.8,30.04,North,0,0.0,0.0,92,0.00,,,0.41,pywws,2013-07-27 01:56:00,
2013-07-26 22:04:00,63.9,61.5,30.03,North,0,0.0,0.0,92,0.00,,,0.41,pywws,2013-07-27 02:04:00,
2013-07-26 22:10:00,63.7,61.6,30.04,North,0,0.0,0.0,93,0.00,,,0.41,pywws,2013-07-27 02:10:00,
2013-07-26 22:17:00,63.3,61.3,30.04,North,0,0.0,0.0,93,0.00,,,0.41,pywws,2013-07-27 02:17:00,
2013-07-26 22:22:00,63.1,61.1,30.04,North,0,0.0,0.0,93,0.00,,,0.41,pywws,2013-07-27 02:22:00,
2013-07-26 22:29:00,63.1,61.1,30.04,North,0,0.0,0.0,93,0.00,,,0.41,pywws,2013-07-27 02:29:00,
2013-07-26 22:38:00,63.1,61.4,30.04,North,0,0.0,0.0,94,0.00,,,0.41,pywws,2013-07-27 02:38:00,
2013-07-26 22:45:00,63.1,61.4,30.04,North,0,0.0,0.0,94,0.00,,,0.41,pywws,2013-07-27 02:45:00,
2013-07-26 22:51:00,63.1,61.4,30.04,North,0,0.0,0.0,94,0.00,,,0.41,pywws,2013-07-27 02:51:00,
2013-07-26 22:56:00,63.1,61.7,30.05,North,0,0.0,0.0,95,0.00,,,0.41,pywws,2013-07-27 02:56:00,
2013-07-26 23:02:00,63.3,61.9,30.05,North,0,0.0,0.0,95,0.00,,,0.41,pywws,2013-07-27 03:02:00,
2013-07-26 23:07:00,63.5,62.0,30.04,East,90,0.0,0.0,95,0.00,,,0.41,pywws,2013-07-27 03:07:00,
2013-07-26 23:13:00,63.3,61.9,30.05,East,90,0.0,0.0,95,0.00,,,0.41,pywws,2013-07-27 03:13:00,
2013-07-26 23:20:00,63.0,61.2,30.05,North,0,0.0,0.0,94,0.00,,,0.41,pywws,2013-07-27 03:20:00,
2013-07-26 23:26:00,62.4,61.0,30.06,North,0,0.0,0.0,95,0.00,,,0.41,pywws,2013-07-27 03:26:00,
2013-07-26 23:36:00,62.2,60.8,30.05,North,0,0.0,0.0,95,0.00,,,0.41,pywws,2013-07-27 03:36:00,
2013-07-26 23:42:00,61.9,60.4,30.05,North,0,0.0,0.0,95,0.00,,,0.41,pywws,2013-07-27 03:42:00,
2013-07-26 23:49:00,61.5,60.1,30.05,North,0,0.0,0.0,95,0.00,,,0.41,pywws,2013-07-27 03:49:00,
2013-07-26 23:54:00,61.3,59.9,30.06,North,0,0.0,0.0,95,0.00,,,0.41,pywws,2013-07-27 03:54:00,